Time;durP1;ratioP1;P1;durP2;ratioP2;P2;SDS_P1;SDS_P2;PMS_P1;PMS_P2;Temp;Humidity;BMP_temperature;BMP_pressure;BME280_temperature;BME280_humidity;BME280_pressure;Samples;Min_cycle;Max_cycle;Signal;HPM_P1;HPM_P2
2023/01/24 00:01:21;;;;;;;;;;;4.90;99.90;;;;;;5061561;28;1559;-72
2023/01/24 00:03:49;;;;;;;;;;;4.80;99.90;;;;;;5064295;28;1055;-71
2023/01/24 00:06:17;;;;;;;;;;;4.80;99.90;;;;;;5065759;28;1279;-73
2023/01/24 00:08:45;;;;;;;;;;;4.50;99.90;;;;;;5061699;28;1452;-71
2023/01/24 00:11:15;;;;;;;;;;;4.60;99.90;;;;;;5063707;28;1686;-72
2023/01/24 00:13:42;;;;;;;;;;;4.70;99.90;;;;;;5068042;28;1037;-72
2023/01/24 00:16:12;;;;;;;;;;;4.50;99.90;;;;;;5068747;28;1902;-72
2023/01/24 00:18:41;;;;;;;;;;;4.50;99.90;;;;;;5066876;28;1017;-72
2023/01/24 00:21:11;;;;;;;;;;;4.60;99.90;;;;;;5069608;28;1253;-73
2023/01/24 00:23:39;;;;;;;;;;;4.60;99.90;;;;;;5069860;28;1034;-72
2023/01/24 00:26:07;;;;;;;;;;;4.70;99.90;;;;;;5065972;28;1306;-73
2023/01/24 00:28:37;;;;;;;;;;;4.80;99.90;;;;;;5064190;28;1031;-72
2023/01/24 00:31:05;;;;;;;;;;;4.80;99.90;;;;;;5067611;28;1567;-72
2023/01/24 00:33:33;;;;;;;;;;;4.70;99.90;;;;;;5062571;28;1104;-71
2023/01/24 00:36:01;;;;;;;;;;;4.70;99.90;;;;;;5064492;28;1989;-72
2023/01/24 00:38:31;;;;;;;;;;;4.50;99.90;;;;;;5067934;28;1088;-72
2023/01/24 00:40:58;;;;;;;;;;;4.60;99.90;;;;;;5061084;28;1092;-71
2023/01/24 00:43:27;;;;;;;;;;;4.60;99.90;;;;;;5067308;28;1134;-73
2023/01/24 00:45:56;;;;;;;;;;;4.60;99.90;;;;;;5061468;28;1264;-73
2023/01/24 00:48:23;;;;;;;;;;;4.70;99.90;;;;;;5065806;28;1051;-71
2023/01/24 00:50:51;;;;;;;;;;;4.70;99.90;;;;;;5066146;28;1279;-72
2023/01/24 00:53:19;;;;;;;;;;;4.70;99.90;;;;;;5067266;28;1088;-72
2023/01/24 00:55:47;;;;;;;;;;;4.70;99.90;;;;;;5063111;28;1393;-72
2023/01/24 00:58:15;;;;;;;;;;;4.70;99.90;;;;;;5060712;28;1910;-72
2023/01/24 01:00:43;;;;;;;;;;;4.70;99.90;;;;;;5069577;28;1072;-72
2023/01/24 01:03:13;;;;;;;;;;;4.80;99.90;;;;;;5063669;28;1523;-72
2023/01/24 01:05:47;;;;;;;;;;;4.70;99.90;;;;;;5065757;28;1475;-72
2023/01/24 01:08:15;;;;;;;;;;;4.60;99.90;;;;;;5062458;28;1001;-72
2023/01/24 01:10:42;;;;;;;;;;;4.60;99.90;;;;;;5057969;28;1282;-72
2023/01/24 01:13:12;;;;;;;;;;;4.70;99.90;;;;;;5067503;28;961;-72
2023/01/24 01:15:39;;;;;;;;;;;4.60;99.90;;;;;;5065756;28;1362;-71
2023/01/24 01:18:07;;;;;;;;;;;4.60;99.90;;;;;;5059100;28;1910;-72
2023/01/24 01:20:36;;;;;;;;;;;4.50;99.90;;;;;;5062453;28;1359;-72
2023/01/24 01:23:04;;;;;;;;;;;4.60;99.90;;;;;;5066265;28;986;-72
2023/01/24 01:25:32;;;;;;;;;;;4.60;99.90;;;;;;5064059;28;1419;-72
2023/01/24 01:27:59;;;;;;;;;;;4.70;99.90;;;;;;5067982;28;1001;-72
2023/01/24 01:30:27;;;;;;;;;;;4.60;99.90;;;;;;5066993;28;1614;-72
2023/01/24 01:32:55;;;;;;;;;;;4.80;99.90;;;;;;5067468;28;1056;-72
2023/01/24 01:35:22;;;;;;;;;;;4.80;99.90;;;;;;5065055;28;1446;-72
2023/01/24 01:37:52;;;;;;;;;;;4.80;99.90;;;;;;5064275;28;2013;-72
2023/01/24 01:40:19;;;;;;;;;;;4.80;99.90;;;;;;5062504;28;1088;-72
2023/01/24 01:42:51;;;;;;;;;;;4.80;99.90;;;;;;5061886;28;1064;-72
2023/01/24 01:45:30;;;;;;;;;;;4.70;99.90;;;;;;5066593;28;1354;-73
2023/01/24 01:47:58;;;;;;;;;;;4.80;99.90;;;;;;5066505;28;1041;-73
2023/01/24 01:50:28;;;;;;;;;;;4.70;99.90;;;;;;5058846;28;1033;-73
2023/01/24 01:52:57;;;;;;;;;;;4.50;99.90;;;;;;5067995;28;1100;-73
2023/01/24 01:55:26;;;;;;;;;;;4.50;99.90;;;;;;5063537;28;1283;-73
2023/01/24 01:57:54;;;;;;;;;;;4.40;99.90;;;;;;5059889;28;1910;-73
2023/01/24 02:00:23;;;;;;;;;;;4.50;99.90;;;;;;5059000;28;1251;-73
2023/01/24 02:02:53;;;;;;;;;;;4.60;99.90;;;;;;5064564;28;1040;-73
2023/01/24 02:05:23;;;;;;;;;;;4.60;99.90;;;;;;5063405;28;1370;-73
2023/01/24 02:07:52;;;;;;;;;;;4.60;99.90;;;;;;5063217;28;985;-73
2023/01/24 02:10:23;;;;;;;;;;;4.60;99.90;;;;;;5064575;28;1263;-73
2023/01/24 02:12:52;;;;;;;;;;;4.60;99.90;;;;;;5059809;28;1159;-73
2023/01/24 02:18:07;;;;;;;;;;;4.60;99.90;;;;;;5066576;28;1890;-73
2023/01/24 02:20:38;;;;;;;;;;;4.50;99.90;;;;;;5064226;28;1230;-72
2023/01/24 02:23:14;;;;;;;;;;;4.50;99.90;;;;;;5063187;28;1067;-72
2023/01/24 02:25:46;;;;;;;;;;;4.50;99.90;;;;;;5056210;28;1415;-72
2023/01/24 02:28:16;;;;;;;;;;;4.60;99.90;;;;;;5064729;28;1145;-72
2023/01/24 02:30:43;;;;;;;;;;;4.60;99.90;;;;;;5067307;28;1060;-72
2023/01/24 02:33:12;;;;;;;;;;;4.60;99.90;;;;;;5069987;28;1089;-72
2023/01/24 02:35:40;;;;;;;;;;;4.50;99.90;;;;;;5072085;28;1364;-73
2023/01/24 02:38:26;;;;;;;;;;;4.60;99.90;;;;;;5072364;28;1914;-72
2023/01/24 02:40:56;;;;;;;;;;;4.50;99.90;;;;;;5065421;28;1084;-72
2023/01/24 02:43:29;;;;;;;;;;;4.60;99.90;;;;;;5074813;28;997;-72
2023/01/24 02:45:56;;;;;;;;;;;4.50;99.90;;;;;;5069076;28;1292;-71
2023/01/24 02:48:26;;;;;;;;;;;4.40;99.90;;;;;;5069180;28;1090;-73
2023/01/24 02:53:40;;;;;;;;;;;4.60;99.90;;;;;;5065265;28;970;-72
2023/01/24 02:58:55;;;;;;;;;;;4.40;99.90;;;;;;5069329;28;1972;-72
2023/01/24 03:01:23;;;;;;;;;;;4.50;99.90;;;;;;5063170;28;1477;-72
2023/01/24 03:03:52;;;;;;;;;;;4.40;99.90;;;;;;5065898;28;1042;-72
2023/01/24 03:06:20;;;;;;;;;;;4.50;99.90;;;;;;5073032;28;1701;-73
2023/01/24 03:08:48;;;;;;;;;;;4.50;99.90;;;;;;5068495;28;1052;-74
2023/01/24 03:11:15;;;;;;;;;;;4.50;99.90;;;;;;5067038;28;1180;-73
2023/01/24 03:35:54;;;;;;;;;;;4.50;99.90;;;;;;5066531;28;1331;-72
2023/01/24 03:41:07;;;;;;;;;;;4.60;99.90;;;;;;5068739;28;1014;-73
2023/01/24 03:43:35;;;;;;;;;;;4.60;99.90;;;;;;5063166;28;1049;-71
2023/01/24 03:46:02;;;;;;;;;;;4.70;99.90;;;;;;5068739;28;1312;-73
2023/01/24 03:48:36;;;;;;;;;;;4.60;99.90;;;;;;5066974;28;1452;-72
2023/01/24 03:53:49;;;;;;;;;;;4.60;99.90;;;;;;5064865;28;1216;-73
2023/01/24 03:56:17;;;;;;;;;;;4.60;99.90;;;;;;5065898;28;1523;-73
2023/01/24 03:58:44;;;;;;;;;;;4.50;99.90;;;;;;5056048;28;1926;-73
2023/01/24 04:01:12;;;;;;;;;;;4.60;99.90;;;;;;5057494;28;1186;-74
2023/01/24 04:03:41;;;;;;;;;;;4.60;99.90;;;;;;5058484;28;1001;-73
2023/01/24 04:06:09;;;;;;;;;;;4.60;99.90;;;;;;5067195;28;1641;-73
2023/01/24 04:08:36;;;;;;;;;;;4.60;99.90;;;;;;5077894;28;1020;-72
2023/01/24 04:11:04;;;;;;;;;;;4.60;99.90;;;;;;5068164;28;1033;-71
2023/01/24 04:13:32;;;;;;;;;;;4.50;99.90;;;;;;5064789;28;1211;-73
2023/01/24 04:15:59;;;;;;;;;;;4.60;99.90;;;;;;5065525;28;1350;-72
2023/01/24 04:18:27;;;;;;;;;;;4.50;99.90;;;;;;5063974;28;1906;-72
2023/01/24 04:20:56;;;;;;;;;;;4.60;99.90;;;;;;5061601;28;1041;-72
2023/01/24 04:23:23;;;;;;;;;;;4.30;99.90;;;;;;5058226;28;1069;-72
2023/01/24 04:25:57;;;;;;;;;;;4.20;99.90;;;;;;5063957;28;1520;-73
2023/01/24 04:28:25;;;;;;;;;;;4.30;99.90;;;;;;5077761;28;1013;-73
2023/01/24 04:30:56;;;;;;;;;;;4.50;99.90;;;;;;5064349;28;1681;-72
2023/01/24 04:33:24;;;;;;;;;;;4.50;99.90;;;;;;5062784;28;1053;-73
2023/01/24 04:35:52;;;;;;;;;;;4.60;99.90;;;;;;5064414;28;1439;-72
2023/01/24 04:38:23;;;;;;;;;;;4.60;99.90;;;;;;5065387;28;1898;-73
2023/01/24 04:40:56;;;;;;;;;;;4.60;99.90;;;;;;5065123;28;1040;-73
2023/01/24 04:43:28;;;;;;;;;;;4.60;99.90;;;;;;5064949;28;1093;-73
2023/01/24 04:45:56;;;;;;;;;;;4.60;99.90;;;;;;5069209;28;1310;-72
2023/01/24 04:48:23;;;;;;;;;;;4.60;99.90;;;;;;5064051;28;1716;-73
2023/01/24 04:50:51;;;;;;;;;;;4.50;99.90;;;;;;5067901;28;1276;-73
2023/01/24 04:53:19;;;;;;;;;;;4.50;99.90;;;;;;5060711;28;1119;-74
2023/01/24 04:55:48;;;;;;;;;;;4.50;99.90;;;;;;5065387;28;1259;-72
2023/01/24 04:58:15;;;;;;;;;;;4.50;99.90;;;;;;5068728;28;1992;-74
2023/01/24 05:00:43;;;;;;;;;;;4.60;99.90;;;;;;5067414;28;1136;-73
2023/01/24 05:03:10;;;;;;;;;;;4.70;99.90;;;;;;5064677;28;1152;-73
2023/01/24 05:05:38;;;;;;;;;;;4.50;99.90;;;;;;5074073;28;1308;-73
2023/01/24 05:08:06;;;;;;;;;;;4.40;99.90;;;;;;5065404;28;1033;-74
2023/01/24 05:10:33;;;;;;;;;;;4.50;99.90;;;;;;5064242;28;1281;-73
2023/01/24 05:13:02;;;;;;;;;;;4.50;99.90;;;;;;5063259;28;1103;-74
2023/01/24 05:15:30;;;;;;;;;;;4.50;99.90;;;;;;5061234;28;1308;-75
2023/01/24 05:17:57;;;;;;;;;;;4.50;99.90;;;;;;5064671;28;1517;-76
2023/01/24 05:20:25;;;;;;;;;;;4.50;99.90;;;;;;5065404;28;1906;-75
2023/01/24 05:22:55;;;;;;;;;;;4.30;99.90;;;;;;5065490;28;1085;-76
2023/01/24 05:25:26;;;;;;;;;;;4.50;99.90;;;;;;5063341;28;1292;-73
2023/01/24 05:27:54;;;;;;;;;;;4.60;99.90;;;;;;5067804;28;989;-75
2023/01/24 05:30:23;;;;;;;;;;;4.60;99.90;;;;;;5061750;28;1103;-76
2023/01/24 05:32:51;;;;;;;;;;;4.50;99.90;;;;;;5062591;28;1485;-75
2023/01/24 05:35:20;;;;;;;;;;;4.40;99.90;;;;;;5060039;28;1364;-75
2023/01/24 05:37:48;;;;;;;;;;;4.30;99.90;;;;;;5062018;28;1531;-75
2023/01/24 05:40:18;;;;;;;;;;;4.40;99.90;;;;;;5063747;28;1976;-75
2023/01/24 05:42:46;;;;;;;;;;;4.30;99.90;;;;;;5062635;28;1033;-75
2023/01/24 05:45:13;;;;;;;;;;;4.10;99.90;;;;;;5064220;28;1252;-75
2023/01/24 05:47:42;;;;;;;;;;;4.40;99.90;;;;;;5062949;28;1742;-72
2023/01/24 05:50:10;;;;;;;;;;;4.40;99.90;;;;;;5057949;28;1403;-72
2023/01/24 05:52:38;;;;;;;;;;;4.50;99.90;;;;;;5055748;28;1304;-71
2023/01/24 05:55:06;;;;;;;;;;;4.40;99.90;;;;;;5055934;28;1775;-71
2023/01/24 05:57:36;;;;;;;;;;;4.10;99.90;;;;;;5061579;28;1223;-72
2023/01/24 06:00:04;;;;;;;;;;;4.00;99.90;;;;;;5058135;28;1906;-72
2023/01/24 06:02:34;;;;;;;;;;;4.00;99.90;;;;;;5058760;28;1737;-72
2023/01/24 06:05:03;;;;;;;;;;;4.10;99.90;;;;;;5060113;28;1303;-72
2023/01/24 06:07:31;;;;;;;;;;;4.20;99.90;;;;;;5065803;28;1017;-72
2023/01/24 06:09:58;;;;;;;;;;;4.10;99.90;;;;;;5065521;28;2049;-72
2023/01/24 06:12:26;;;;;;;;;;;3.80;99.90;;;;;;5062872;28;1072;-71
2023/01/24 06:14:54;;;;;;;;;;;3.80;99.90;;;;;;5063797;28;1238;-71
2023/01/24 06:17:23;;;;;;;;;;;4.00;99.90;;;;;;5063792;28;1095;-70
2023/01/24 06:19:51;;;;;;;;;;;4.00;99.90;;;;;;5065901;28;1985;-76
2023/01/24 06:22:26;;;;;;;;;;;4.00;99.90;;;;;;5065690;28;1035;-73
2023/01/24 06:24:54;;;;;;;;;;;3.90;99.90;;;;;;5065967;28;1285;-72
2023/01/24 06:27:22;;;;;;;;;;;3.90;99.90;;;;;;5063581;28;1044;-72
2023/01/24 06:29:50;;;;;;;;;;;3.90;99.90;;;;;;5062484;28;1051;-73
2023/01/24 06:32:23;;;;;;;;;;;3.80;99.90;;;;;;5061795;28;1415;-75
2023/01/24 06:34:59;;;;;;;;;;;3.80;99.90;;;;;;5055174;28;1870;-74
2023/01/24 06:37:33;;;;;;;;;;;3.80;99.90;;;;;;5065294;28;834;-74
2023/01/24 06:40:01;;;;;;;;;;;4.00;99.90;;;;;;5062817;28;1898;-73
2023/01/24 06:42:29;;;;;;;;;;;4.10;99.90;;;;;;5060870;28;1045;-73
2023/01/24 06:44:56;;;;;;;;;;;4.20;99.90;;;;;;5060033;28;1882;-73
2023/01/24 06:47:26;;;;;;;;;;;4.30;99.90;;;;;;5060983;28;1804;-73
2023/01/24 06:49:54;;;;;;;;;;;4.10;99.90;;;;;;5063913;28;1577;-73
2023/01/24 06:52:22;;;;;;;;;;;4.20;99.90;;;;;;5063974;28;1659;-75
2023/01/24 06:54:51;;;;;;;;;;;4.30;99.90;;;;;;5060567;28;1312;-75
2023/01/24 06:57:19;;;;;;;;;;;4.40;99.90;;;;;;5064884;28;1040;-75
2023/01/24 06:59:46;;;;;;;;;;;4.30;99.90;;;;;;5066517;28;1906;-74
2023/01/24 07:02:14;;;;;;;;;;;4.30;99.90;;;;;;5060673;28;1174;-74
2023/01/24 07:04:42;;;;;;;;;;;4.30;99.90;;;;;;5064856;28;1269;-74
2023/01/24 07:07:09;;;;;;;;;;;4.40;99.90;;;;;;5058300;28;1854;-75
2023/01/24 07:09:37;;;;;;;;;;;4.50;99.90;;;;;;5059055;28;1946;-75
2023/01/24 07:12:06;;;;;;;;;;;4.40;99.90;;;;;;5060531;28;1874;-73
2023/01/24 07:14:34;;;;;;;;;;;4.40;99.90;;;;;;5062753;28;1724;-76
2023/01/24 07:17:02;;;;;;;;;;;4.40;99.90;;;;;;5069307;28;1867;-74
2023/01/24 07:19:30;;;;;;;;;;;4.40;99.90;;;;;;5064003;28;1996;-76
2023/01/24 07:21:58;;;;;;;;;;;4.30;99.90;;;;;;5062993;28;1879;-75
2023/01/24 07:24:27;;;;;;;;;;;4.20;99.90;;;;;;5063620;28;1875;-74
2023/01/24 07:26:55;;;;;;;;;;;4.20;99.90;;;;;;5067160;28;950;-74
2023/01/24 07:29:24;;;;;;;;;;;4.10;99.90;;;;;;5060667;28;1902;-74
2023/01/24 07:31:53;;;;;;;;;;;4.00;99.90;;;;;;5069923;28;1637;-74
2023/01/24 07:34:22;;;;;;;;;;;4.20;99.90;;;;;;5066982;28;1340;-74
2023/01/24 07:36:50;;;;;;;;;;;4.30;99.90;;;;;;5064352;28;1419;-74
2023/01/24 07:39:17;;;;;;;;;;;4.00;99.90;;;;;;5066133;28;1257;-76
2023/01/24 07:41:45;;;;;;;;;;;4.00;99.90;;;;;;5072117;28;1887;-74
2023/01/24 07:44:13;;;;;;;;;;;4.00;99.90;;;;;;5065516;28;1275;-74
2023/01/24 07:46:44;;;;;;;;;;;4.30;99.90;;;;;;5065070;28;1413;-74
2023/01/24 07:49:12;;;;;;;;;;;4.20;99.90;;;;;;5063738;28;1602;-74
2023/01/24 07:51:39;;;;;;;;;;;4.20;99.90;;;;;;5062098;28;1192;-74
2023/01/24 07:54:07;;;;;;;;;;;4.20;99.90;;;;;;5067596;28;1166;-74
2023/01/24 07:56:37;;;;;;;;;;;4.20;99.90;;;;;;5065476;28;1460;-74
2023/01/24 07:59:05;;;;;;;;;;;3.90;99.90;;;;;;5066418;28;1734;-75
2023/01/24 08:01:33;;;;;;;;;;;4.10;99.90;;;;;;5067390;28;1999;-75
2023/01/24 08:04:02;;;;;;;;;;;4.00;99.90;;;;;;5063410;28;1171;-77
2023/01/24 08:06:30;;;;;;;;;;;4.20;99.90;;;;;;5064777;28;1635;-74
2023/01/24 08:08:58;;;;;;;;;;;4.10;99.90;;;;;;5062169;28;1903;-75
2023/01/24 08:11:26;;;;;;;;;;;4.20;99.90;;;;;;5065796;28;1850;-74
2023/01/24 08:13:57;;;;;;;;;;;4.10;99.90;;;;;;5066600;28;1578;-74
2023/01/24 08:16:26;;;;;;;;;;;4.20;99.90;;;;;;5070566;28;1272;-74
2023/01/24 08:18:53;;;;;;;;;;;4.20;99.90;;;;;;5060918;28;1699;-74
2023/01/24 08:21:22;;;;;;;;;;;4.10;99.90;;;;;;5060241;28;2000;-73
2023/01/24 08:23:50;;;;;;;;;;;4.10;99.90;;;;;;5064568;28;1161;-72
2023/01/24 08:26:18;;;;;;;;;;;4.20;99.90;;;;;;5061010;28;1396;-73
2023/01/24 08:28:46;;;;;;;;;;;4.20;99.90;;;;;;5062839;28;1764;-74
2023/01/24 08:31:17;;;;;;;;;;;4.10;99.90;;;;;;5065746;28;1254;-75
2023/01/24 08:33:45;;;;;;;;;;;4.20;99.90;;;;;;5058883;28;1807;-74
2023/01/24 08:36:12;;;;;;;;;;;4.30;99.90;;;;;;5063501;28;1515;-74
2023/01/24 08:38:41;;;;;;;;;;;4.20;99.90;;;;;;5065399;28;1063;-73
2023/01/24 08:41:10;;;;;;;;;;;4.30;99.90;;;;;;5059942;28;1906;-73
2023/01/24 08:43:37;;;;;;;;;;;4.30;99.90;;;;;;5065093;28;1720;-73
2023/01/24 08:46:05;;;;;;;;;;;4.30;99.70;;;;;;5060309;28;1294;-75
2023/01/24 08:48:33;;;;;;;;;;;4.30;99.90;;;;;;5062431;28;1115;-74
2023/01/24 08:51:03;;;;;;;;;;;4.30;99.50;;;;;;5065364;28;1100;-74
2023/01/24 08:53:31;;;;;;;;;;;4.30;99.90;;;;;;5062019;28;1780;-73
2023/01/24 08:56:02;;;;;;;;;;;4.30;99.60;;;;;;5062534;28;1760;-74
2023/01/24 08:58:32;;;;;;;;;;;4.10;99.80;;;;;;5057091;28;2037;-73
2023/01/24 09:00:59;;;;;;;;;;;4.20;99.90;;;;;;5064463;28;1997;-74
2023/01/24 09:03:28;;;;;;;;;;;4.40;99.90;;;;;;5061476;28;1763;-73
2023/01/24 09:05:56;;;;;;;;;;;4.40;99.60;;;;;;5065104;28;1266;-74
2023/01/24 09:08:24;;;;;;;;;;;4.50;99.40;;;;;;5064465;28;1053;-74
2023/01/24 09:10:51;;;;;;;;;;;4.50;99.20;;;;;;5065530;28;827;-72
2023/01/24 09:13:20;;;;;;;;;;;4.40;99.30;;;;;;5063411;28;1196;-73
2023/01/24 09:15:48;;;;;;;;;;;4.40;99.40;;;;;;5062035;28;1961;-73
2023/01/24 09:18:16;;;;;;;;;;;4.20;99.60;;;;;;5063963;28;1105;-73
2023/01/24 09:20:44;;;;;;;;;;;4.20;99.40;;;;;;5065494;28;1996;-73
2023/01/24 09:23:12;;;;;;;;;;;4.20;99.20;;;;;;5062333;28;1885;-73
2023/01/24 09:25:40;;;;;;;;;;;4.20;99.40;;;;;;5063822;28;1260;-74
2023/01/24 09:28:08;;;;;;;;;;;4.10;99.20;;;;;;5065141;28;767;-74
2023/01/24 09:30:37;;;;;;;;;;;3.90;99.60;;;;;;5062579;28;1188;-75
2023/01/24 09:33:05;;;;;;;;;;;4.00;99.60;;;;;;5064136;28;1105;-74
2023/01/24 09:35:33;;;;;;;;;;;4.10;99.70;;;;;;5064328;28;1264;-73
2023/01/24 09:38:00;;;;;;;;;;;4.30;99.60;;;;;;5064565;28;1655;-73
2023/01/24 09:40:30;;;;;;;;;;;4.40;98.90;;;;;;5064899;28;1237;-74
2023/01/24 09:43:04;;;;;;;;;;;4.40;98.90;;;;;;5061052;28;1989;-74
2023/01/24 09:45:33;;;;;;;;;;;4.60;99.00;;;;;;5070298;28;1247;-73
2023/01/24 09:48:04;;;;;;;;;;;4.30;98.70;;;;;;5071245;28;1045;-73
2023/01/24 09:50:35;;;;;;;;;;;4.30;99.10;;;;;;5064976;28;1112;-76
2023/01/24 09:53:02;;;;;;;;;;;4.30;99.00;;;;;;5066023;28;1001;-76
2023/01/24 09:55:32;;;;;;;;;;;4.20;99.40;;;;;;5061443;28;1937;-75
2023/01/24 09:58:04;;;;;;;;;;;4.30;99.30;;;;;;5065643;28;1037;-76
2023/01/24 10:00:35;;;;;;;;;;;4.20;99.10;;;;;;5069379;28;1168;-76
2023/01/24 10:03:09;;;;;;;;;;;4.40;98.70;;;;;;5059481;28;1979;-76
2023/01/24 10:05:39;;;;;;;;;;;4.30;99.20;;;;;;5062723;28;1475;-76
2023/01/24 10:08:12;;;;;;;;;;;4.40;99.00;;;;;;5065203;28;1791;-75
2023/01/24 10:10:49;;;;;;;;;;;4.40;99.00;;;;;;5063294;28;1072;-76
2023/01/24 10:13:29;;;;;;;;;;;4.20;99.10;;;;;;5061460;28;1419;-77
2023/01/24 10:16:02;;;;;;;;;;;4.40;98.80;;;;;;5063715;28;1386;-75
2023/01/24 10:18:39;;;;;;;;;;;4.20;99.00;;;;;;5060660;28;1841;-77
2023/01/24 10:21:17;;;;;;;;;;;4.30;99.10;;;;;;5066692;28;1988;-76
2023/01/24 10:23:45;;;;;;;;;;;4.30;98.80;;;;;;5062456;28;1167;-75
2023/01/24 10:26:17;;;;;;;;;;;4.50;98.50;;;;;;5065700;28;1256;-76
2023/01/24 10:28:47;;;;;;;;;;;4.40;98.90;;;;;;5061637;28;1940;-75
2023/01/24 10:31:17;;;;;;;;;;;4.50;98.90;;;;;;5064119;28;1035;-76
2023/01/24 10:33:48;;;;;;;;;;;4.50;98.80;;;;;;5061480;28;1109;-76
2023/01/24 10:36:19;;;;;;;;;;;4.40;98.70;;;;;;5065402;28;1543;-75
2023/01/24 10:38:46;;;;;;;;;;;4.40;98.80;;;;;;5068059;28;1088;-76
2023/01/24 10:41:15;;;;;;;;;;;4.50;98.40;;;;;;5060311;28;1993;-76
2023/01/24 10:43:49;;;;;;;;;;;4.40;98.60;;;;;;5061148;28;1134;-76
2023/01/24 10:46:26;;;;;;;;;;;4.40;98.50;;;;;;5061899;28;2019;-76
2023/01/24 10:48:57;;;;;;;;;;;4.50;98.10;;;;;;5065253;28;766;-76
2023/01/24 10:51:25;;;;;;;;;;;4.50;98.00;;;;;;5067207;28;1005;-75
2023/01/24 10:53:55;;;;;;;;;;;4.50;97.20;;;;;;5065707;28;1013;-76
2023/01/24 10:56:23;;;;;;;;;;;4.70;97.00;;;;;;5066118;28;1665;-76
2023/01/24 10:58:57;;;;;;;;;;;4.40;97.60;;;;;;5064597;28;1757;-75
2023/01/24 11:01:32;;;;;;;;;;;4.40;97.60;;;;;;5061450;28;1892;-76
2023/01/24 11:04:12;;;;;;;;;;;4.50;97.20;;;;;;5065858;28;1498;-75
2023/01/24 11:06:40;;;;;;;;;;;4.50;97.50;;;;;;5069833;28;1476;-75
2023/01/24 11:09:10;;;;;;;;;;;4.50;97.30;;;;;;5066760;28;1440;-75
2023/01/24 11:11:41;;;;;;;;;;;4.30;97.50;;;;;;5076982;28;1542;-75
2023/01/24 11:14:13;;;;;;;;;;;4.40;97.40;;;;;;5079407;28;1072;-74
2023/01/24 11:16:42;;;;;;;;;;;4.50;97.30;;;;;;5077391;28;1409;-74
2023/01/24 11:19:23;;;;;;;;;;;4.50;97.50;;;;;;5074828;28;1810;-75
2023/01/24 11:21:52;;;;;;;;;;;4.60;97.30;;;;;;5071537;28;1959;-74
2023/01/24 11:24:22;;;;;;;;;;;4.50;97.40;;;;;;5078551;28;985;-73
2023/01/24 11:26:58;;;;;;;;;;;4.50;97.50;;;;;;5075925;28;1695;-73
2023/01/24 11:29:25;;;;;;;;;;;4.40;97.00;;;;;;5068871;28;1151;-73
2023/01/24 11:31:54;;;;;;;;;;;4.50;96.70;;;;;;5071877;28;1093;-74
2023/01/24 11:34:32;;;;;;;;;;;4.40;96.90;;;;;;5077594;28;1091;-72
2023/01/24 11:37:06;;;;;;;;;;;4.20;97.10;;;;;;5079761;28;1927;-74
2023/01/24 11:39:38;;;;;;;;;;;4.40;96.70;;;;;;5083951;28;1707;-74
2023/01/24 11:42:10;;;;;;;;;;;4.40;96.80;;;;;;5071894;28;1882;-73
2023/01/24 11:44:45;;;;;;;;;;;4.40;96.90;;;;;;5052034;28;1721;-74
2023/01/24 11:47:14;;;;;;;;;;;4.60;96.60;;;;;;5057742;28;2048;-74
2023/01/24 11:49:56;;;;;;;;;;;4.50;96.40;;;;;;5066877;28;1582;-72
2023/01/24 11:52:34;;;;;;;;;;;4.80;96.60;;;;;;5060636;28;1749;-73
2023/01/24 11:55:05;;;;;;;;;;;4.60;96.40;;;;;;5063636;28;1434;-73
2023/01/24 11:57:37;;;;;;;;;;;4.40;96.80;;;;;;5063266;28;1037;-73
2023/01/24 12:00:12;;;;;;;;;;;4.30;97.10;;;;;;5062179;28;1550;-72
2023/01/24 12:02:47;;;;;;;;;;;4.60;96.80;;;;;;5065051;28;1918;-74
2023/01/24 12:05:29;;;;;;;;;;;4.60;97.20;;;;;;5066780;28;1456;-73
2023/01/24 12:07:58;;;;;;;;;;;4.60;96.90;;;;;;5067922;28;1073;-72
2023/01/24 12:10:29;;;;;;;;;;;4.60;96.70;;;;;;5069948;28;1334;-72
2023/01/24 12:13:03;;;;;;;;;;;4.50;96.30;;;;;;5067738;28;1684;-73
2023/01/24 12:15:36;;;;;;;;;;;4.60;96.20;;;;;;5067509;28;1283;-74
2023/01/24 12:18:17;;;;;;;;;;;4.70;96.30;;;;;;5068423;28;1143;-72
2023/01/24 12:20:58;;;;;;;;;;;4.70;96.20;;;;;;5072776;28;1063;-75
2023/01/24 12:23:29;;;;;;;;;;;4.40;96.50;;;;;;5067876;28;1910;-73
2023/01/24 12:26:00;;;;;;;;;;;4.40;96.60;;;;;;5070811;28;1353;-72
2023/01/24 12:28:30;;;;;;;;;;;4.50;97.00;;;;;;5069645;28;1560;-73
2023/01/24 12:31:00;;;;;;;;;;;4.40;96.50;;;;;;5057824;28;1613;-72
2023/01/24 12:33:31;;;;;;;;;;;4.80;96.50;;;;;;5069849;28;1088;-72
2023/01/24 12:36:01;;;;;;;;;;;4.70;95.90;;;;;;5069464;28;1441;-72
2023/01/24 12:38:32;;;;;;;;;;;4.70;96.20;;;;;;5066045;28;1450;-73
2023/01/24 12:41:03;;;;;;;;;;;4.60;96.50;;;;;;5066324;28;1029;-73
2023/01/24 12:43:32;;;;;;;;;;;4.60;96.50;;;;;;5061876;28;1906;-74
2023/01/24 12:46:03;;;;;;;;;;;4.70;96.00;;;;;;5064171;28;1960;-74
2023/01/24 12:48:36;;;;;;;;;;;4.70;95.80;;;;;;5064558;28;1066;-72
2023/01/24 12:51:11;;;;;;;;;;;4.90;95.90;;;;;;5066721;28;1354;-74
2023/01/24 12:53:41;;;;;;;;;;;4.70;96.10;;;;;;5065969;28;1897;-74
2023/01/24 12:56:12;;;;;;;;;;;4.40;96.90;;;;;;5066411;28;1290;-71
2023/01/24 12:58:41;;;;;;;;;;;4.40;97.40;;;;;;5064455;28;1084;-71
2023/01/24 13:01:31;;;;;;;;;;;4.50;96.10;;;;;;5067141;28;1269;-71
2023/01/24 13:04:08;;;;;;;;;;;4.60;96.20;;;;;;5060971;28;1989;-72
2023/01/24 13:06:42;;;;;;;;;;;4.70;96.50;;;;;;5055436;28;1381;-73
2023/01/24 13:09:17;;;;;;;;;;;4.80;95.90;;;;;;5064486;28;1653;-72
2023/01/24 13:11:46;;;;;;;;;;;4.70;95.60;;;;;;5062534;28;1128;-71
2023/01/24 13:14:16;;;;;;;;;;;4.90;95.70;;;;;;5057971;28;1604;-71
2023/01/24 13:17:05;;;;;;;;;;;5.00;96.00;;;;;;5061218;28;1161;-72
2023/01/24 13:19:39;;;;;;;;;;;4.90;96.00;;;;;;5054937;28;1712;-72
2023/01/24 13:22:14;;;;;;;;;;;4.70;96.10;;;;;;5059210;28;1142;-72
2023/01/24 13:24:48;;;;;;;;;;;4.60;96.30;;;;;;5064070;28;1965;-73
2023/01/24 13:27:21;;;;;;;;;;;4.60;96.30;;;;;;5063495;28;1113;-71
2023/01/24 13:30:01;;;;;;;;;;;4.50;96.30;;;;;;5056202;28;1298;-71
2023/01/24 13:32:29;;;;;;;;;;;4.70;96.00;;;;;;5066003;28;1098;-71
2023/01/24 13:34:58;;;;;;;;;;;4.70;95.90;;;;;;5065490;28;1218;-70
2023/01/24 13:37:28;;;;;;;;;;;4.70;96.10;;;;;;5062525;28;1925;-72
2023/01/24 13:40:04;;;;;;;;;;;4.80;96.00;;;;;;5065848;28;1071;-71
2023/01/24 13:42:35;;;;;;;;;;;4.80;95.70;;;;;;5064590;28;1923;-72
2023/01/24 13:45:21;;;;;;;;;;;4.70;95.80;;;;;;5065872;28;1984;-73
2023/01/24 13:47:49;;;;;;;;;;;4.70;96.00;;;;;;5066161;28;2109;-74
2023/01/24 13:50:18;;;;;;;;;;;4.80;96.20;;;;;;5068789;28;1637;-73
2023/01/24 13:52:50;;;;;;;;;;;4.90;95.70;;;;;;5063774;28;1099;-73
2023/01/24 13:55:41;;;;;;;;;;;4.80;95.90;;;;;;5061384;28;1320;-73
2023/01/24 13:58:18;;;;;;;;;;;4.60;96.20;;;;;;5050004;28;1246;-71
2023/01/24 14:00:46;;;;;;;;;;;4.70;96.00;;;;;;5059600;28;1017;-73
2023/01/24 14:03:23;;;;;;;;;;;4.70;96.10;;;;;;5054940;28;1992;-72
2023/01/24 14:05:57;;;;;;;;;;;4.60;95.90;;;;;;5058828;28;2674;-73
2023/01/24 14:08:43;;;;;;;;;;;4.60;96.30;;;;;;5062187;28;1009;-72
2023/01/24 14:11:29;;;;;;;;;;;4.60;96.50;;;;;;5064793;28;1253;-73
2023/01/24 14:14:03;;;;;;;;;;;4.70;96.50;;;;;;5065688;28;1214;-72
2023/01/24 14:16:45;;;;;;;;;;;4.70;96.50;;;;;;5054148;28;1280;-72
2023/01/24 14:19:15;;;;;;;;;;;4.80;96.10;;;;;;5062852;28;1466;-72
2023/01/24 14:21:47;;;;;;;;;;;4.60;96.20;;;;;;5062403;28;1025;-73
2023/01/24 14:24:20;;;;;;;;;;;4.60;95.90;;;;;;5061429;28;1981;-73
2023/01/24 14:26:51;;;;;;;;;;;4.60;96.10;;;;;;5061472;28;1373;-74
2023/01/24 14:29:19;;;;;;;;;;;4.50;96.50;;;;;;5068689;28;1121;-73
2023/01/24 14:31:49;;;;;;;;;;;4.20;96.60;;;;;;5066655;28;1175;-72
2023/01/24 14:34:19;;;;;;;;;;;4.20;96.80;;;;;;5076973;28;989;-73
2023/01/24 14:36:50;;;;;;;;;;;4.30;96.90;;;;;;5065684;28;1133;-73
2023/01/24 14:39:26;;;;;;;;;;;4.50;96.70;;;;;;5067839;28;1084;-73
2023/01/24 14:41:58;;;;;;;;;;;4.60;96.40;;;;;;5057836;28;1045;-73
2023/01/24 14:44:26;;;;;;;;;;;4.50;96.40;;;;;;5068060;28;1891;-72
2023/01/24 14:46:55;;;;;;;;;;;4.10;97.20;;;;;;5070560;28;1073;-73
2023/01/24 14:49:31;;;;;;;;;;;4.30;97.30;;;;;;5065675;28;1064;-75
2023/01/24 14:51:59;;;;;;;;;;;4.30;97.40;;;;;;5066692;28;1106;-72
2023/01/24 14:54:50;;;;;;;;;;;4.30;97.10;;;;;;5059084;28;1331;-73
2023/01/24 14:57:27;;;;;;;;;;;4.30;97.20;;;;;;5069660;28;1290;-73
2023/01/24 15:00:03;;;;;;;;;;;4.30;97.10;;;;;;5062142;28;1190;-73
2023/01/24 15:02:33;;;;;;;;;;;4.30;97.00;;;;;;5066066;28;1306;-76
2023/01/24 15:05:01;;;;;;;;;;;4.10;97.20;;;;;;5066366;28;1906;-76
2023/01/24 15:07:29;;;;;;;;;;;4.10;97.20;;;;;;5067480;28;1033;-74
2023/01/24 15:09:58;;;;;;;;;;;4.10;97.40;;;;;;5066428;28;1605;-74
2023/01/24 15:12:28;;;;;;;;;;;4.00;97.80;;;;;;5068131;28;1005;-74
2023/01/24 15:14:57;;;;;;;;;;;3.90;98.20;;;;;;5065129;28;1454;-74
2023/01/24 15:17:26;;;;;;;;;;;4.00;98.20;;;;;;5067120;28;1081;-72
2023/01/24 15:19:58;;;;;;;;;;;4.20;97.90;;;;;;5067149;28;1252;-71
2023/01/24 15:22:27;;;;;;;;;;;4.20;97.70;;;;;;5061833;28;1045;-73
2023/01/24 15:24:56;;;;;;;;;;;4.20;97.90;;;;;;5060069;28;1910;-73
2023/01/24 15:27:33;;;;;;;;;;;4.10;97.80;;;;;;5068824;28;985;-74
2023/01/24 15:30:10;;;;;;;;;;;3.90;98.40;;;;;;5064758;28;1156;-73
2023/01/24 15:32:40;;;;;;;;;;;3.90;98.10;;;;;;5064185;28;1084;-73
2023/01/24 15:35:21;;;;;;;;;;;4.10;98.30;;;;;;5066026;28;1326;-74
2023/01/24 15:38:00;;;;;;;;;;;4.20;98.50;;;;;;5063827;28;1128;-72